createdAt,value
2023-03-23T00:01:31.755Z,80.18
2023-03-23T00:03:59.556Z,79.67
2023-03-23T00:06:27.777Z,80.81
2023-03-23T00:08:58.823Z,79.89
2023-03-23T00:11:27.776Z,80.12
2023-03-23T00:13:54.762Z,79.75
2023-03-23T00:16:30.212Z,79.83
2023-03-23T00:18:58.484Z,79.61
2023-03-23T00:21:34.769Z,79.83
2023-03-23T00:24:03.440Z,79.33
2023-03-23T00:26:31.454Z,79.25
2023-03-23T00:29:18.318Z,78.43
2023-03-23T00:31:48.896Z,79.19
2023-03-23T00:34:20.421Z,80.25
2023-03-23T00:36:48.596Z,78.59
2023-03-23T00:39:18.050Z,78.59
2023-03-23T00:41:45.643Z,78.05
2023-03-23T00:44:18.097Z,78.16
2023-03-23T00:46:51.070Z,79.26
2023-03-23T00:49:20.000Z,77.85
2023-03-23T00:51:47.073Z,78.67
2023-03-23T00:54:14.071Z,78.52
2023-03-23T00:56:41.313Z,78.23
2023-03-23T00:59:08.745Z,79.09
2023-03-23T01:01:36.788Z,78.47
2023-03-23T01:04:05.570Z,77.81
2023-03-23T01:06:36.423Z,76.89
2023-03-23T01:09:03.837Z,77.81
2023-03-23T01:11:30.893Z,77.58
2023-03-23T01:13:57.820Z,77.12
2023-03-23T01:16:25.180Z,76.88
2023-03-23T01:18:52.125Z,77.48
2023-03-23T01:21:20.545Z,77.97
2023-03-23T01:23:48.065Z,77.41
2023-03-23T01:26:16.641Z,77.60
2023-03-23T01:28:44.086Z,77.09
2023-03-23T01:31:14.523Z,76.58
2023-03-23T01:33:42.322Z,75.85
2023-03-23T01:36:11.599Z,76.16
2023-03-23T01:38:38.756Z,75.70
2023-03-23T01:41:05.964Z,76.78
2023-03-23T01:43:33.318Z,76.93
2023-03-23T01:46:00.367Z,77.15
2023-03-23T01:48:28.046Z,77.09
2023-03-23T01:50:58.720Z,77.45
2023-03-23T01:53:27.711Z,76.19
2023-03-23T01:55:55.500Z,76.71
2023-03-23T01:58:26.896Z,76.57
2023-03-23T02:00:56.695Z,76.30
2023-03-23T02:03:24.644Z,77.62
2023-03-23T02:05:52.449Z,77.53
2023-03-23T02:08:19.669Z,76.09
2023-03-23T02:10:46.712Z,76.63
2023-03-23T02:13:18.623Z,77.64
2023-03-23T02:15:48.563Z,75.83
2023-03-23T02:18:18.556Z,76.51
2023-03-23T02:20:46.031Z,75.72
2023-03-23T02:23:13.321Z,76.13
2023-03-23T02:25:40.934Z,76.15
2023-03-23T02:28:09.357Z,76.51
2023-03-23T02:30:39.420Z,75.91
2023-03-23T02:33:11.111Z,75.82
2023-03-23T02:35:40.820Z,76.39
2023-03-23T02:38:11.068Z,76.34
2023-03-23T02:40:41.740Z,76.37
2023-03-23T02:43:10.814Z,76.66
2023-03-23T02:45:39.667Z,76.77
2023-03-23T02:48:07.871Z,77.58
2023-03-23T02:50:37.190Z,78.34
2023-03-23T02:53:05.700Z,77.38
2023-03-23T02:55:33.607Z,76.93
2023-03-23T02:58:03.298Z,76.26
2023-03-23T03:00:30.867Z,76.54
2023-03-23T03:02:58.599Z,76.16
2023-03-23T03:05:26.198Z,76.36
2023-03-23T03:07:56.359Z,76.93
2023-03-23T03:10:27.253Z,76.30
2023-03-23T03:12:57.288Z,76.75
2023-03-23T03:15:28.154Z,77.11
2023-03-23T03:17:58.201Z,76.90
2023-03-23T03:20:27.732Z,77.88
2023-03-23T03:22:56.677Z,77.63
2023-03-23T03:25:24.654Z,77.24
2023-03-23T03:27:53.750Z,77.71
2023-03-23T03:30:25.212Z,78.48
2023-03-23T03:32:54.763Z,79.06
2023-03-23T03:35:23.368Z,78.04
2023-03-23T03:37:52.165Z,78.42
2023-03-23T03:40:21.323Z,79.29
2023-03-23T03:42:48.463Z,79.82
2023-03-23T03:45:17.245Z,79.06
2023-03-23T03:47:44.260Z,78.59
2023-03-23T03:50:11.545Z,78.47
2023-03-23T03:52:39.585Z,78.61
2023-03-23T03:55:08.241Z,79.14
2023-03-23T03:57:35.876Z,79.39
2023-03-23T04:00:14.210Z,79.38
2023-03-23T04:02:44.323Z,79.45
2023-03-23T04:05:12.912Z,79.31
2023-03-23T04:07:40.716Z,79.96
2023-03-23T04:10:08.388Z,80.59
2023-03-23T04:12:36.276Z,79.84
2023-03-23T04:15:06.402Z,79.83
2023-03-23T04:17:33.923Z,80.17
2023-03-23T04:20:01.436Z,79.84
2023-03-23T04:22:32.133Z,79.54
2023-03-23T04:24:59.903Z,79.57
2023-03-23T04:27:29.283Z,79.79
2023-03-23T04:29:57.615Z,79.45
2023-03-23T04:32:26.296Z,78.72
2023-03-23T04:34:53.525Z,78.50
2023-03-23T04:37:40.107Z,78.45
2023-03-23T04:40:11.188Z,79.17
2023-03-23T04:42:38.919Z,80.10
2023-03-23T04:45:07.515Z,79.93
2023-03-23T04:47:40.856Z,80.28
2023-03-23T04:50:10.657Z,80.18
2023-03-23T04:52:41.689Z,79.48
2023-03-23T04:55:16.176Z,80.20
2023-03-23T04:57:43.288Z,79.58
2023-03-23T05:00:14.067Z,79.64
2023-03-23T05:02:41.513Z,80.26
2023-03-23T05:05:08.968Z,80.76
2023-03-23T05:07:36.194Z,79.72
2023-03-23T05:10:03.248Z,80.78
2023-03-23T05:12:30.193Z,80.13
2023-03-23T05:14:57.145Z,81.02
2023-03-23T05:17:25.270Z,81.11
2023-03-23T05:19:52.648Z,82.02
2023-03-23T05:22:22.088Z,83.11
2023-03-23T05:24:49.080Z,83.01
2023-03-23T05:27:16.281Z,83.48
2023-03-23T05:29:43.223Z,82.99
2023-03-23T05:32:10.243Z,82.94
2023-03-23T05:34:37.131Z,82.83
2023-03-23T05:37:04.715Z,82.56
2023-03-23T05:39:32.518Z,82.01
2023-03-23T05:41:59.796Z,82.38
2023-03-23T05:44:27.916Z,81.93
2023-03-23T05:47:00.857Z,83.53
2023-03-23T05:49:28.417Z,81.80
2023-03-23T05:51:55.677Z,81.65
2023-03-23T05:54:22.672Z,81.18
2023-03-23T05:56:50.322Z,81.49
2023-03-23T05:59:21.000Z,81.52
2023-03-23T06:01:48.030Z,82.70
2023-03-23T06:04:18.414Z,83.12
2023-03-23T06:06:45.440Z,82.42
2023-03-23T06:09:13.127Z,82.30
2023-03-23T06:11:40.063Z,81.90
2023-03-23T06:14:07.043Z,82.00
2023-03-23T06:16:34.044Z,81.06
2023-03-23T06:19:02.157Z,82.18
2023-03-23T06:21:29.467Z,82.18
2023-03-23T06:23:57.241Z,81.33
2023-03-23T06:26:27.392Z,80.47
2023-03-23T06:28:54.433Z,80.44
2023-03-23T06:31:21.799Z,81.42
2023-03-23T06:33:48.724Z,80.99
2023-03-23T06:36:15.714Z,80.68
2023-03-23T06:38:42.759Z,80.00
2023-03-23T06:41:10.134Z,81.34
2023-03-23T06:43:40.605Z,82.40
2023-03-23T06:46:08.141Z,82.11
2023-03-23T06:48:35.185Z,82.44
2023-03-23T06:51:02.131Z,81.55
2023-03-23T06:53:29.116Z,82.18
2023-03-23T06:55:56.067Z,81.18
2023-03-23T06:58:25.001Z,81.13
2023-03-23T07:00:55.084Z,82.65
2023-03-23T07:03:22.076Z,82.96
2023-03-23T07:05:49.117Z,82.91
2023-03-23T07:08:16.254Z,81.78
2023-03-23T07:10:43.994Z,82.60
2023-03-23T07:13:11.825Z,82.08
2023-03-23T07:15:40.358Z,81.56
2023-03-23T07:18:07.657Z,82.21
2023-03-23T07:20:34.674Z,83.44
2023-03-23T07:23:03.425Z,81.51
2023-03-23T07:25:30.443Z,82.82
2023-03-23T07:27:57.701Z,82.83
2023-03-23T07:30:24.827Z,80.70
2023-03-23T07:32:56.916Z,79.86
2023-03-23T07:35:24.563Z,79.21
2023-03-23T07:37:53.344Z,77.37
2023-03-23T07:40:28.049Z,74.82
2023-03-23T07:42:56.858Z,73.08
2023-03-23T07:45:24.665Z,71.27
2023-03-23T07:47:52.307Z,72.91
2023-03-23T07:50:22.606Z,73.79
2023-03-23T07:52:49.724Z,73.31
2023-03-23T07:55:19.043Z,73.04
2023-03-23T07:57:47.020Z,70.89
2023-03-23T08:00:20.431Z,70.28
2023-03-23T08:02:48.360Z,67.61
2023-03-23T08:05:16.511Z,66.46
2023-03-23T08:07:44.214Z,65.54
2023-03-23T08:10:12.356Z,66.92
2023-03-23T08:12:40.502Z,68.09
2023-03-23T08:15:08.522Z,68.86
2023-03-23T08:17:36.143Z,68.97
2023-03-23T08:20:10.450Z,68.74
2023-03-23T08:22:44.746Z,68.52
2023-03-23T08:25:19.445Z,69.42
2023-03-23T08:27:46.994Z,68.85
2023-03-23T08:30:15.560Z,64.73
2023-03-23T08:32:42.966Z,63.95
2023-03-23T08:35:11.116Z,65.69
2023-03-23T08:37:38.831Z,65.37
2023-03-23T08:40:10.133Z,65.12
2023-03-23T08:42:39.575Z,65.81
2023-03-23T08:45:08.519Z,66.51
2023-03-23T08:47:36.899Z,66.49
2023-03-23T08:50:04.720Z,65.61
2023-03-23T08:52:32.217Z,65.41
2023-03-23T08:54:59.675Z,66.08
2023-03-23T08:57:27.597Z,64.96
2023-03-23T08:59:58.934Z,68.14
2023-03-23T09:02:26.204Z,68.12
2023-03-23T09:04:54.273Z,67.05
2023-03-23T09:07:21.379Z,66.82
2023-03-23T09:09:48.685Z,66.93
2023-03-23T09:12:15.764Z,66.25
2023-03-23T09:14:43.301Z,66.75
2023-03-23T09:17:12.686Z,66.65
2023-03-23T09:19:40.027Z,66.55
2023-03-23T09:22:07.280Z,67.55
2023-03-23T09:24:34.585Z,67.08
2023-03-23T09:27:01.668Z,66.44
2023-03-23T09:29:30.461Z,66.91
2023-03-23T09:31:57.680Z,66.17
2023-03-23T09:34:24.804Z,66.60
2023-03-23T09:36:53.416Z,67.16
2023-03-23T09:39:21.315Z,67.90
2023-03-23T09:41:50.754Z,66.76
2023-03-23T09:44:24.413Z,66.62
2023-03-23T09:46:52.882Z,66.94
2023-03-23T09:49:25.151Z,67.55
2023-03-23T09:51:54.562Z,67.12
2023-03-23T09:54:22.173Z,66.61
2023-03-23T09:56:49.798Z,67.00
2023-03-23T09:59:20.539Z,67.92
2023-03-23T10:01:50.239Z,66.67
2023-03-23T10:04:23.460Z,65.16
2023-03-23T10:06:50.826Z,63.77
2023-03-23T10:09:20.237Z,62.27
2023-03-23T10:11:48.804Z,62.48
2023-03-23T10:14:24.168Z,63.19
2023-03-23T10:16:57.145Z,62.98
2023-03-23T10:19:27.603Z,61.40
2023-03-23T10:21:58.448Z,60.91
2023-03-23T10:24:31.448Z,61.73
2023-03-23T10:27:06.930Z,60.87
2023-03-23T10:29:38.276Z,60.87
2023-03-23T10:32:11.444Z,60.88
2023-03-23T10:34:41.989Z,61.33
2023-03-23T10:37:10.368Z,62.04
2023-03-23T10:39:40.521Z,61.54
2023-03-23T10:42:09.201Z,60.67
2023-03-23T10:44:36.261Z,60.85
2023-03-23T10:47:05.630Z,61.15
2023-03-23T10:49:35.895Z,60.94
2023-03-23T10:52:03.572Z,60.04
2023-03-23T10:54:34.245Z,60.92
2023-03-23T10:57:03.857Z,60.80
2023-03-23T10:59:33.801Z,60.76
2023-03-23T11:02:04.323Z,60.17
2023-03-23T11:04:32.808Z,59.92
2023-03-23T11:07:02.404Z,60.93
2023-03-23T11:09:32.505Z,61.44
2023-03-23T11:12:02.591Z,59.85
2023-03-23T11:14:31.494Z,60.31
2023-03-23T11:17:10.290Z,61.08
2023-03-23T11:19:43.016Z,61.83
2023-03-23T11:22:15.900Z,61.43
2023-03-23T11:24:47.095Z,61.94
2023-03-23T11:27:15.540Z,62.75
2023-03-23T11:29:51.981Z,63.76
2023-03-23T11:32:27.651Z,63.72
2023-03-23T11:35:06.904Z,64.34
2023-03-23T11:37:44.077Z,63.30
2023-03-23T11:40:12.761Z,64.31
2023-03-23T11:42:42.961Z,64.15
2023-03-23T11:45:13.068Z,63.90
2023-03-23T11:47:42.908Z,63.94
2023-03-23T11:50:11.926Z,63.05
2023-03-23T11:52:40.349Z,62.99
2023-03-23T11:55:11.161Z,62.63
2023-03-23T11:57:38.384Z,62.38
2023-03-23T12:00:09.158Z,62.53
2023-03-23T12:02:36.584Z,61.48
2023-03-23T12:05:07.301Z,62.71
2023-03-23T12:07:38.104Z,64.94
2023-03-23T12:10:08.273Z,67.53
2023-03-23T12:12:38.520Z,66.81
2023-03-23T12:15:08.740Z,63.28
2023-03-23T12:17:42.915Z,63.53
2023-03-23T12:20:16.017Z,61.92
2023-03-23T12:22:46.179Z,62.64
2023-03-23T12:25:16.680Z,61.30
2023-03-23T12:27:48.469Z,60.18
2023-03-23T12:30:18.701Z,60.70
2023-03-23T12:32:48.886Z,61.34
2023-03-23T12:35:21.560Z,61.31
2023-03-23T12:37:54.743Z,61.94
2023-03-23T12:40:30.146Z,60.87
2023-03-23T12:43:00.412Z,60.30
2023-03-23T12:45:30.901Z,59.78
2023-03-23T12:48:01.824Z,59.08
2023-03-23T12:50:32.016Z,59.82
2023-03-23T12:53:05.726Z,60.00
2023-03-23T12:55:36.116Z,59.70
2023-03-23T12:58:07.545Z,59.30
2023-03-23T13:00:40.038Z,59.49
2023-03-23T13:03:10.186Z,58.45
2023-03-23T13:05:42.309Z,57.67
2023-03-23T13:08:13.725Z,56.17
2023-03-23T13:10:44.319Z,56.64
2023-03-23T13:13:21.162Z,56.08
2023-03-23T13:15:51.560Z,54.99
2023-03-23T13:18:26.580Z,54.96
2023-03-23T13:20:57.098Z,53.55
2023-03-23T13:23:26.514Z,54.07
2023-03-23T13:25:57.985Z,54.17
2023-03-23T13:28:27.480Z,54.46
2023-03-23T13:30:58.725Z,54.85
2023-03-23T13:33:26.853Z,54.36
2023-03-23T13:35:55.504Z,56.06
2023-03-23T13:38:26.112Z,54.76
2023-03-23T13:40:55.244Z,55.56
2023-03-23T13:43:25.717Z,55.65
2023-03-23T13:45:55.408Z,54.47
2023-03-23T13:48:25.470Z,55.49
2023-03-23T13:50:55.615Z,55.19
2023-03-23T13:53:30.412Z,55.16
2023-03-23T13:56:05.857Z,56.47
2023-03-23T13:58:46.110Z,56.76
2023-03-23T14:01:17.708Z,55.27
2023-03-23T14:03:51.894Z,54.49
2023-03-23T14:06:22.690Z,55.02
2023-03-23T14:08:52.329Z,56.43
2023-03-23T14:11:23.166Z,53.81
2023-03-23T14:13:53.710Z,54.62
2023-03-23T14:16:22.761Z,55.72
2023-03-23T14:18:53.181Z,55.00
2023-03-23T14:21:28.435Z,55.14
2023-03-23T14:23:58.004Z,55.90
2023-03-23T14:26:25.395Z,56.46
2023-03-23T14:28:54.923Z,57.30
2023-03-23T14:31:26.032Z,57.54
2023-03-23T14:33:54.829Z,58.26
2023-03-23T14:36:23.564Z,58.84
2023-03-23T14:38:58.801Z,59.26
2023-03-23T14:41:29.308Z,59.20
2023-03-23T14:43:56.591Z,59.03
2023-03-23T14:46:26.265Z,60.83
2023-03-23T14:48:53.937Z,61.08
2023-03-23T14:51:22.420Z,60.05
2023-03-23T14:53:52.512Z,62.81
2023-03-23T14:56:21.072Z,64.24
2023-03-23T14:58:49.681Z,67.01
2023-03-23T15:01:20.515Z,68.12
2023-03-23T15:03:52.814Z,70.47
2023-03-23T15:06:22.260Z,71.23
2023-03-23T15:08:51.119Z,72.78
2023-03-23T15:11:19.852Z,72.56
2023-03-23T15:14:00.723Z,73.38
2023-03-23T15:16:29.513Z,74.87
2023-03-23T15:18:57.340Z,74.04
2023-03-23T15:21:27.780Z,75.24
2023-03-23T15:23:56.001Z,76.97
2023-03-23T15:26:27.497Z,76.02
2023-03-23T15:28:57.964Z,75.95
2023-03-23T15:31:26.025Z,78.10
2023-03-23T15:33:57.209Z,80.07
2023-03-23T15:36:24.614Z,79.75
2023-03-23T15:38:52.279Z,81.01
2023-03-23T15:41:22.768Z,83.16
2023-03-23T15:43:52.629Z,83.02
2023-03-23T15:46:22.689Z,82.49
2023-03-23T15:48:53.349Z,82.97
2023-03-23T15:51:21.656Z,82.36
2023-03-23T15:53:50.381Z,81.88
2023-03-23T15:56:18.709Z,82.47
2023-03-23T15:58:46.458Z,80.23
2023-03-23T16:01:16.102Z,79.71
2023-03-23T16:03:45.598Z,80.28
2023-03-23T16:06:25.334Z,79.27
2023-03-23T16:08:55.642Z,76.71
2023-03-23T16:11:24.266Z,79.15
2023-03-23T16:13:51.642Z,78.51
2023-03-23T16:16:23.048Z,78.60
2023-03-23T16:18:50.845Z,78.14
2023-03-23T16:21:18.351Z,79.10
2023-03-23T16:23:46.996Z,80.92
2023-03-23T16:26:15.159Z,82.70
2023-03-23T16:28:43.178Z,82.28
2023-03-23T16:31:10.897Z,83.03
2023-03-23T16:33:38.766Z,84.02
2023-03-23T16:36:06.694Z,84.64
2023-03-23T16:38:34.208Z,84.60
2023-03-23T16:41:17.478Z,85.44
2023-03-23T16:43:45.265Z,87.07
2023-03-23T16:46:14.039Z,87.38
2023-03-23T16:48:41.656Z,87.18
2023-03-23T16:51:09.270Z,87.73
2023-03-23T16:53:37.665Z,88.31
2023-03-23T16:56:05.731Z,89.16
2023-03-23T16:58:33.272Z,90.16
2023-03-23T17:01:01.984Z,89.38
2023-03-23T17:03:29.505Z,89.55
2023-03-23T17:05:57.307Z,90.17
2023-03-23T17:08:24.830Z,90.44
2023-03-23T17:10:52.115Z,89.95
2023-03-23T17:13:19.698Z,90.06
2023-03-23T17:15:47.610Z,90.80
2023-03-23T17:18:15.965Z,91.63
2023-03-23T17:20:44.123Z,91.58
2023-03-23T17:23:11.961Z,92.06
2023-03-23T17:25:39.464Z,92.74
2023-03-23T17:28:07.312Z,92.93
2023-03-23T17:30:35.811Z,92.82
2023-03-23T17:33:03.419Z,92.66
2023-03-23T17:35:31.175Z,91.53
2023-03-23T17:37:59.009Z,91.69
2023-03-23T17:40:26.768Z,92.00
2023-03-23T17:42:54.224Z,92.03
2023-03-23T17:45:24.719Z,91.08
2023-03-23T17:47:52.150Z,89.78
2023-03-23T17:50:19.811Z,90.82
2023-03-23T17:52:47.342Z,91.12
2023-03-23T17:55:14.714Z,91.50
2023-03-23T17:57:43.980Z,91.59
2023-03-23T18:00:13.334Z,90.72
2023-03-23T18:02:42.095Z,89.60
2023-03-23T18:05:10.763Z,89.54
2023-03-23T18:07:38.548Z,90.04
2023-03-23T18:10:12.266Z,91.15
2023-03-23T18:12:41.900Z,91.21
2023-03-23T18:15:10.325Z,91.67
2023-03-23T18:17:38.257Z,91.66
2023-03-23T18:20:06.608Z,91.91
2023-03-23T18:22:34.089Z,91.60
2023-03-23T18:25:03.773Z,91.19
2023-03-23T18:27:31.801Z,91.28
2023-03-23T18:29:59.619Z,91.79
2023-03-23T18:32:32.994Z,91.44
2023-03-23T18:35:00.352Z,93.01
2023-03-23T18:37:28.600Z,93.46
2023-03-23T18:39:56.155Z,93.07
2023-03-23T18:42:23.384Z,93.30
2023-03-23T18:44:50.549Z,93.00
2023-03-23T18:47:22.048Z,93.17
2023-03-23T18:49:54.520Z,93.94
2023-03-23T18:52:22.736Z,93.88
2023-03-23T18:54:50.107Z,93.89
2023-03-23T18:57:18.508Z,94.08
2023-03-23T18:59:46.103Z,93.66
2023-03-23T19:02:14.615Z,94.00
2023-03-23T19:04:42.109Z,94.87
2023-03-23T19:07:09.590Z,94.84
2023-03-23T19:09:37.298Z,94.88
2023-03-23T19:12:04.592Z,94.77
2023-03-23T19:14:32.059Z,94.77
2023-03-23T19:16:59.393Z,94.22
2023-03-23T19:19:27.061Z,93.65
2023-03-23T19:21:54.365Z,93.89
2023-03-23T19:24:21.606Z,93.60
2023-03-23T19:26:48.942Z,93.57
2023-03-23T19:31:48.274Z,93.80
2023-03-23T19:34:16.454Z,92.17
2023-03-23T19:36:53.712Z,92.17
2023-03-23T19:39:23.798Z,91.23
2023-03-23T19:41:51.668Z,91.27
2023-03-23T19:44:18.800Z,91.87
2023-03-23T19:46:46.190Z,92.46
2023-03-23T19:49:14.658Z,92.67
2023-03-23T19:51:41.941Z,92.57
2023-03-23T19:54:09.097Z,91.27
2023-03-23T19:56:36.619Z,91.49
2023-03-23T19:59:05.028Z,92.20
2023-03-23T20:01:32.591Z,91.96
2023-03-23T20:04:02.128Z,91.42
2023-03-23T20:06:29.837Z,92.35
2023-03-23T20:09:00.210Z,91.86
2023-03-23T20:11:28.243Z,91.29
2023-03-23T20:13:56.012Z,91.05
2023-03-23T20:16:23.744Z,90.25
2023-03-23T20:18:50.961Z,90.28
2023-03-23T20:21:22.346Z,90.23
2023-03-23T20:23:50.704Z,90.49
2023-03-23T20:26:19.699Z,89.79
2023-03-23T20:28:47.743Z,89.94
2023-03-23T20:31:23.109Z,90.50
2023-03-23T20:33:59.917Z,89.63
2023-03-23T20:36:35.255Z,89.77
2023-03-23T20:39:05.813Z,89.85
2023-03-23T20:41:33.505Z,89.92
2023-03-23T20:44:00.658Z,89.21
2023-03-23T20:46:28.186Z,90.83
2023-03-23T20:48:55.360Z,91.01
2023-03-23T20:51:22.703Z,90.72
2023-03-23T20:53:50.504Z,90.55
2023-03-23T20:56:17.667Z,90.80
2023-03-23T20:58:45.183Z,90.43
2023-03-23T21:01:12.386Z,90.46
2023-03-23T21:03:40.847Z,90.95
2023-03-23T21:06:08.489Z,90.88
2023-03-23T21:08:37.542Z,90.63
2023-03-23T21:11:05.630Z,89.65
2023-03-23T21:13:32.699Z,89.54
2023-03-23T21:16:01.442Z,89.29
2023-03-23T21:18:28.894Z,90.62
2023-03-23T21:20:57.750Z,89.89
2023-03-23T21:23:27.061Z,90.01
2023-03-23T21:25:55.022Z,90.32
2023-03-23T21:28:22.463Z,89.87
2023-03-23T21:30:52.899Z,90.87
2023-03-23T21:33:20.503Z,90.82
2023-03-23T21:35:47.716Z,90.36
2023-03-23T21:38:15.466Z,91.46
2023-03-23T21:40:43.330Z,91.20
2023-03-23T21:43:15.167Z,90.90
2023-03-23T21:45:42.935Z,90.77
2023-03-23T21:48:10.879Z,91.78
2023-03-23T21:50:38.906Z,90.92
2023-03-23T21:53:06.056Z,90.49
2023-03-23T21:55:34.064Z,90.73
2023-03-23T21:58:01.514Z,90.01
2023-03-23T22:00:28.841Z,90.25
2023-03-23T22:02:56.008Z,91.04
2023-03-23T22:05:23.343Z,90.46
2023-03-23T22:07:51.573Z,90.85
2023-03-23T22:10:18.842Z,90.71
2023-03-23T22:12:46.202Z,90.49
2023-03-23T22:15:14.303Z,91.27
2023-03-23T22:17:41.609Z,90.12
2023-03-23T22:20:11.667Z,90.39
2023-03-23T22:22:38.696Z,90.94
2023-03-23T22:25:06.696Z,90.35
2023-03-23T22:27:33.973Z,90.53
2023-03-23T22:30:01.028Z,90.40
2023-03-23T22:32:28.285Z,91.10
2023-03-23T22:34:55.361Z,90.26
2023-03-23T22:37:22.510Z,90.20
2023-03-23T22:39:49.622Z,89.80
2023-03-23T22:42:16.725Z,89.93
2023-03-23T22:44:43.979Z,90.40
2023-03-23T22:47:11.548Z,90.11
2023-03-23T22:49:39.494Z,89.66
2023-03-23T22:52:06.959Z,89.64
2023-03-23T22:54:34.141Z,90.21
2023-03-23T22:57:01.352Z,89.87
2023-03-23T22:59:28.458Z,88.87
2023-03-23T23:01:55.575Z,89.06
2023-03-23T23:04:22.747Z,89.16
2023-03-23T23:06:50.933Z,89.78
2023-03-23T23:09:20.718Z,90.25
2023-03-23T23:11:47.875Z,90.35
2023-03-23T23:14:14.993Z,90.15
2023-03-23T23:16:42.860Z,88.86
2023-03-23T23:19:10.042Z,89.19
2023-03-23T23:21:37.456Z,89.37
2023-03-23T23:24:04.628Z,89.19
2023-03-23T23:26:31.735Z,89.22
2023-03-23T23:28:58.812Z,89.68
2023-03-23T23:31:27.631Z,88.87
2023-03-23T23:33:55.713Z,88.33
2023-03-23T23:36:23.110Z,87.74
2023-03-23T23:38:50.216Z,88.93
2023-03-23T23:41:17.428Z,88.35
2023-03-23T23:43:44.616Z,88.08
2023-03-23T23:46:11.959Z,88.85
2023-03-23T23:48:39.209Z,88.58
2023-03-23T23:51:06.968Z,87.19
2023-03-23T23:53:34.345Z,88.05
2023-03-23T23:56:03.247Z,88.43
2023-03-23T23:58:30.429Z,87.76
